Fort Steele, Wyoming
Current Conditions -  °F | °C
As of 8:53 PM on Wednesday 28 Jan 2015 (Local Time) from KRWL Reporting Station
Overcast Overcast  
Wind Chill: 29°   Ceiling: 7500
Heat Index: 34°   Visibility: 10mi
Dew Point: 30°   Wind: 6mph
Humidity: 85%   Direction: 320°NW
Pressure: 30.3"   Gusts: NA
Location:  41.7532°N, 107.372°W
Report Text: KRWL 290353Z AUTO 32005KT 10SM OVC075 01/M01 A3030 RMK AO2 SLP260 T00111011
Loading
Personal Weather Stations






























Interactive Weather Map New forecast layout! Learn more

10-Day Weather Forecast

Advertisements
Track Severe Weather on mobile